Time;durP1;ratioP1;P1;durP2;ratioP2;P2;SDS_P1;SDS_P2;PMS_P1;PMS_P2;Temp;Humidity;BMP_temperature;BMP_pressure;BME280_temperature;BME280_humidity;BME280_pressure;Samples;Min_cycle;Max_cycle;Signal;HPM_P1;HPM_P2
2022/08/18 00:02:24;;;;;;;34.70;28.40;;;;;;;17.48;100.00;97749.84;1771786;81;20995;-88
2022/08/18 00:04:51;;;;;;;34.58;27.50;;;;;;;17.48;100.00;97755.33;1771706;81;21002;-88
2022/08/18 00:07:24;;;;;;;32.38;28.35;;;;;;;17.45;100.00;97748.58;1771801;81;21053;-86
2022/08/18 00:09:50;;;;;;;34.10;29.65;;;;;;;17.41;100.00;97745.45;1741992;81;20959;-88
2022/08/18 00:12:21;;;;;;;34.53;29.42;;;;;;;17.46;100.00;97739.80;1756772;81;21126;-86
2022/08/18 00:14:47;;;;;;;36.05;31.48;;;;;;;17.54;100.00;97741.69;1771004;81;21398;-88
2022/08/18 00:17:13;;;;;;;35.98;31.37;;;;;;;17.58;100.00;97740.44;1771883;80;20965;-88
2022/08/18 00:19:39;;;;;;;32.15;27.73;;;;;;;17.60;100.00;97739.53;1752320;81;21001;-87
2022/08/18 00:22:06;;;;;;;35.40;27.58;;;;;;;17.68;100.00;97741.42;1772223;80;20989;-88
2022/08/18 00:24:32;;;;;;;33.20;28.77;;;;;;;17.71;100.00;97749.83;1766729;81;21430;-88
2022/08/18 00:26:58;;;;;;;36.93;29.80;;;;;;;17.71;100.00;97764.89;1771908;81;20976;-86
2022/08/18 00:29:24;;;;;;;38.17;28.65;;;;;;;17.69;100.00;97750.70;1765461;79;20883;-88
2022/08/18 00:31:50;;;;;;;34.50;28.57;;;;;;;17.64;100.00;97754.99;1794645;79;20975;-86
2022/08/18 00:34:16;;;;;;;32.08;27.45;;;;;;;17.56;100.00;97749.56;1743686;80;21050;-86
2022/08/18 00:36:42;;;;;;;37.30;29.52;;;;;;;17.45;100.00;97745.05;1742150;82;21459;-86
2022/08/18 00:39:08;;;;;;;38.92;30.40;;;;;;;17.36;100.00;97742.92;1750784;82;21459;-86
2022/08/18 00:41:34;;;;;;;30.77;27.45;;;;;;;17.29;100.00;97740.69;1751065;82;22294;-86
2022/08/18 00:44:00;;;;;;;35.95;28.62;;;;;;;17.24;100.00;97753.75;1750988;82;20926;-87
2022/08/18 00:46:32;;;;;;;37.28;30.10;;;;;;;17.15;100.00;97747.75;1751286;82;21053;-86
2022/08/18 00:48:59;;;;;;;32.65;28.55;;;;;;;17.12;100.00;97752.53;1755252;81;22033;-87
2022/08/18 00:51:30;;;;;;;35.88;27.90;;;;;;;17.06;100.00;97744.25;1758573;81;21016;-86
2022/08/18 00:54:04;;;;;;;40.43;31.60;;;;;;;17.06;100.00;97744.25;1758356;81;21101;-88
2022/08/18 00:56:38;;;;;;;38.78;29.90;;;;;;;17.07;100.00;97740.95;1756881;81;21392;-86
2022/08/18 00:59:18;;;;;;;36.95;29.07;;;;;;;17.07;100.00;97749.16;1758112;81;20941;-86
2022/08/18 01:01:45;;;;;;;41.70;31.00;;;;;;;17.02;100.00;97745.25;1758688;81;21872;-86
2022/08/18 01:04:19;;;;;;;34.60;30.82;;;;;;;16.97;100.00;97741.31;1708598;82;21408;-88
2022/08/18 01:06:55;;;;;;;42.62;30.17;;;;;;;16.94;100.00;97734.58;1761764;81;21462;-88
2022/08/18 01:09:22;;;;;;;31.40;27.95;;;;;;;16.94;100.00;97731.03;1741085;81;20988;-86
2022/08/18 01:11:50;;;;;;;37.73;29.07;;;;;;;16.90;100.00;97731.67;1738770;81;21403;-89
2022/08/18 01:14:17;;;;;;;33.60;29.32;;;;;;;16.87;100.00;97734.27;1755328;81;21123;-86
2022/08/18 01:22:22;;;;;;;41.88;31.97;;;;;;;16.72;100.00;97737.53;1761647;80;21018;-89
2022/08/18 01:27:34;;;;;;;39.80;31.75;;;;;;;16.65;100.00;97726.48;1742889;81;21074;-89
2022/08/18 01:30:08;;;;;;;36.85;30.00;;;;;;;16.65;100.00;97730.59;1746458;81;20957;-89
2022/08/18 01:32:32;;;;;;;41.65;31.93;;;;;;;16.62;100.00;97727.72;1734590;81;21041;-86
2022/08/18 01:34:58;;;;;;;42.65;32.95;;;;;;;16.60;100.00;97734.88;1720375;81;20900;-88
2022/08/18 01:37:24;;;;;;;40.95;32.20;;;;;;;16.58;100.00;97736.34;1720382;81;20888;-86
2022/08/18 01:39:50;;;;;;;46.30;33.55;;;;;;;16.55;100.00;97739.15;1741622;81;22043;-89
2022/08/18 01:42:16;;;;;;;40.70;32.40;;;;;;;16.54;100.00;97734.01;1736419;82;20883;-88
2022/08/18 01:44:44;;;;;;;40.55;31.12;;;;;;;16.53;100.00;97727.73;1750134;81;20962;-88
2022/08/18 01:47:11;;;;;;;35.37;30.77;;;;;;;16.54;100.00;97725.80;1764759;80;21529;-86
2022/08/18 01:49:38;;;;;;;35.55;30.57;;;;;;;16.55;100.00;97716.47;1766045;81;21402;-86
2022/08/18 01:52:06;;;;;;;31.33;27.60;;;;;;;16.57;100.00;97716.94;1766173;81;21305;-88
2022/08/18 01:54:32;;;;;;;37.98;30.97;;;;;;;16.54;100.00;97717.59;1747386;81;21077;-88
2022/08/18 01:56:58;;;;;;;38.53;28.42;;;;;;;16.52;100.00;97725.33;1721961;82;21013;-86
2022/08/18 01:59:24;;;;;;;35.52;28.83;;;;;;;16.49;100.00;97721.86;1742272;81;20871;-86
2022/08/18 02:01:52;;;;;;;39.63;31.73;;;;;;;16.48;100.00;97719.69;1745042;81;21476;-86
2022/08/18 02:04:18;;;;;;;35.65;30.40;;;;;;;16.47;100.00;97719.45;1742072;81;21062;-86
2022/08/18 02:06:44;;;;;;;42.62;33.40;;;;;;;16.47;100.00;97718.66;1745023;81;21459;-87
2022/08/18 02:09:10;;;;;;;42.03;32.65;;;;;;;16.51;100.00;97712.23;1749818;79;21005;-86
2022/08/18 02:11:36;;;;;;;37.78;32.15;;;;;;;16.53;100.00;97708.59;1766070;81;21528;-86
2022/08/18 02:14:02;;;;;;;37.10;31.60;;;;;;;16.53;100.00;97708.59;1764933;81;21624;-87
2022/08/18 02:16:28;;;;;;;39.73;30.92;;;;;;;16.53;100.00;97700.95;1738828;82;21321;-88
2022/08/18 02:18:54;;;;;;;41.95;32.17;;;;;;;16.54;100.00;97707.46;1735153;82;21014;-88
2022/08/18 02:21:21;;;;;;;39.60;31.87;;;;;;;16.55;100.00;97709.06;1751183;82;20887;-86
2022/08/18 02:23:47;;;;;;;40.35;31.02;;;;;;;16.53;100.00;97707.79;1750823;82;21019;-85
2022/08/18 02:26:15;;;;;;;34.15;29.95;;;;;;;16.51;100.00;97708.13;1740781;82;21010;-87
2022/08/18 02:28:41;;;;;;;33.88;28.45;;;;;;;16.47;100.00;97701.69;1750839;82;20944;-86
2022/08/18 02:31:13;;;;;;;35.20;30.15;;;;;;;16.45;100.00;97701.78;1774726;79;20990;-85
2022/08/18 02:33:39;;;;;;;34.10;28.92;;;;;;;16.41;100.00;97707.11;1759049;79;21004;-88
2022/08/18 02:36:06;;;;;;;41.45;29.02;;;;;;;16.34;100.00;97709.53;1739719;81;21435;-87
2022/08/18 02:38:32;;;;;;;38.75;29.55;;;;;;;16.30;100.00;97707.19;1740492;82;21027;-86
2022/08/18 02:40:59;;;;;;;34.88;28.52;;;;;;;16.27;100.00;97705.11;1750630;82;21118;-88
2022/08/18 02:43:26;;;;;;;32.70;27.37;;;;;;;16.23;100.00;97707.67;1750726;82;21038;-87
2022/08/18 02:45:52;;;;;;;33.78;28.10;;;;;;;16.21;100.00;97710.50;1750857;82;20979;-86
2022/08/18 02:48:32;;;;;;;36.50;32.00;;;;;;;16.16;100.00;97706.58;1750796;82;20871;-88
2022/08/18 02:50:58;;;;;;;37.28;29.40;;;;;;;16.15;100.00;97705.78;1738569;81;21046;-86
2022/08/18 02:53:24;;;;;;;38.95;32.88;;;;;;;16.21;100.00;97709.93;1751572;81;21301;-87
2022/08/18 02:55:50;;;;;;;39.83;34.75;;;;;;;16.22;100.00;97705.27;1740500;81;20883;-89
2022/08/18 02:58:19;;;;;;;39.10;31.65;;;;;;;16.25;100.00;97706.81;1745571;81;20855;-86
2022/08/18 03:00:45;;;;;;;33.58;29.02;;;;;;;16.31;100.00;97707.42;1743116;81;20944;-86
2022/08/18 03:03:12;;;;;;;37.50;31.52;;;;;;;16.24;100.00;97710.67;1743362;81;20999;-86
2022/08/18 03:05:38;;;;;;;40.33;32.33;;;;;;;16.22;100.00;97714.27;1750757;81;21721;-86
2022/08/18 03:08:04;;;;;;;41.65;35.70;;;;;;;16.27;100.00;97722.31;1740452;80;20956;-85
2022/08/18 03:10:30;;;;;;;42.43;34.43;;;;;;;16.27;100.00;97716.84;1740469;82;21399;-88
2022/08/18 03:12:56;;;;;;;44.50;36.85;;;;;;;16.26;100.00;97716.61;1740396;82;20951;-87
2022/08/18 03:15:22;;;;;;;43.65;34.92;;;;;;;16.26;100.00;97719.34;1740497;82;20982;-86
2022/08/18 03:17:50;;;;;;;40.50;31.57;;;;;;;16.29;100.00;97717.32;1740077;81;21062;-88
2022/08/18 03:20:16;;;;;;;35.73;29.48;;;;;;;16.31;100.00;97720.53;1739030;81;20971;-88
2022/08/18 03:22:42;;;;;;;41.70;32.13;;;;;;;16.31;100.00;97717.80;1741322;81;21035;-86
2022/08/18 03:25:08;;;;;;;39.33;31.87;;;;;;;16.34;100.00;97721.83;1761117;81;20906;-89
2022/08/18 03:27:34;;;;;;;39.92;33.48;;;;;;;16.34;100.00;97718.53;1765971;80;21010;-85
2022/08/18 03:30:02;;;;;;;36.75;31.48;;;;;;;16.33;100.00;97725.70;1738103;82;21010;-88
2022/08/18 03:32:28;;;;;;;39.65;30.85;;;;;;;16.29;100.00;97726.09;1735070;81;20996;-87
2022/08/18 03:34:54;;;;;;;37.90;31.17;;;;;;;16.26;100.00;97718.55;1742293;81;21047;-88
2022/08/18 03:37:20;;;;;;;34.20;30.17;;;;;;;16.24;100.00;97720.80;1741265;82;20958;-89
2022/08/18 03:39:46;;;;;;;38.60;30.48;;;;;;;16.23;100.00;97724.64;1741074;80;20980;-86
2022/08/18 03:42:12;;;;;;;41.42;33.20;;;;;;;16.19;100.00;97727.23;1743399;81;21127;-88
2022/08/18 03:44:38;;;;;;;41.80;31.45;;;;;;;16.20;100.00;97731.56;1716231;82;20962;-86
2022/08/18 03:47:08;;;;;;;35.65;29.77;;;;;;;16.21;100.00;97732.37;1737838;82;20984;-87
2022/08/18 03:49:35;;;;;;;32.50;29.05;;;;;;;16.20;100.00;97729.39;1746236;81;21060;-87
2022/08/18 03:52:02;;;;;;;36.60;29.98;;;;;;;16.17;100.00;97736.32;1717040;82;21001;-88
2022/08/18 03:54:30;;;;;;;32.78;28.05;;;;;;;16.15;100.00;97741.31;1741430;82;21131;-88
2022/08/18 03:56:57;;;;;;;33.48;29.12;;;;;;;16.13;100.00;97742.17;1740989;82;21011;-86
2022/08/18 03:59:24;;;;;;;33.85;29.75;;;;;;;16.10;100.00;97742.83;1740648;81;21065;-87
2022/08/18 04:01:51;;;;;;;34.88;29.12;;;;;;;16.07;100.00;97748.95;1740822;82;20964;-86
2022/08/18 04:04:24;;;;;;;34.85;30.57;;;;;;;16.06;100.00;97756.88;1740727;82;21006;-86
2022/08/18 04:06:57;;;;;;;36.42;32.00;;;;;;;16.05;100.00;97753.34;1751052;82;21121;-89
2022/08/18 04:09:26;;;;;;;36.90;29.70;;;;;;;16.04;100.00;97753.11;1740693;82;21058;-87
2022/08/18 04:11:52;;;;;;;;;;;;;;;16.08;100.00;97748.62;1743357;82;21046;-89
2022/08/18 04:14:23;;;;;;;35.63;27.45;;;;;;;16.08;100.00;97751.36;1740830;82;20211;-86
2022/08/18 04:16:49;;;;;;;33.83;28.65;;;;;;;16.08;100.00;97754.66;1740817;81;21403;-90
2022/08/18 04:19:16;;;;;;;33.30;27.40;;;;;;;16.02;100.00;97754.56;1731548;82;21201;-89
2022/08/18 04:21:43;;;;;;;32.08;27.45;;;;;;;15.98;100.00;97760.41;1730532;82;21151;-86
2022/08/18 04:24:11;;;;;;;38.33;30.25;;;;;;;15.97;100.00;97758.25;1751998;81;20990;-89
2022/08/18 04:26:44;;;;;;;33.35;26.93;;;;;;;15.99;100.00;97762.85;1753732;81;20989;-87
2022/08/18 04:29:10;;;;;;;33.60;28.32;;;;;;;15.97;100.00;97760.98;1738102;81;20991;-89
2022/08/18 04:31:36;;;;;;;33.53;29.05;;;;;;;15.98;100.00;97765.34;1784764;80;21112;-86
2022/08/18 04:34:02;;;;;;;36.93;28.02;;;;;;;16.02;100.00;97761.40;1754481;79;21061;-89
2022/08/18 04:36:30;;;;;;;32.23;26.35;;;;;;;16.08;100.00;97762.86;1740617;81;21652;-87
2022/08/18 04:38:57;;;;;;;29.75;25.25;;;;;;;16.07;100.00;97757.15;1740821;81;20952;-89
2022/08/18 04:41:25;;;;;;;38.10;26.75;;;;;;;16.05;100.00;97758.81;1732071;82;21457;-88
2022/08/18 04:43:51;;;;;;;31.27;26.25;;;;;;;16.03;100.00;97759.70;1746873;82;20955;-86
2022/08/18 04:46:17;;;;;;;28.90;25.82;;;;;;;16.05;100.00;97762.91;1766950;79;21031;-89
2022/08/18 04:48:43;;;;;;;32.38;27.32;;;;;;;16.10;100.00;97764.70;1767364;80;20955;-86
2022/08/18 04:51:12;;;;;;;30.40;27.30;;;;;;;16.20;100.00;97762.20;1738277;81;20917;-86
2022/08/18 04:53:44;;;;;;;30.43;26.20;;;;;;;16.30;100.00;97768.70;1735008;81;20978;-90
2022/08/18 04:56:24;;;;;;;29.32;26.00;;;;;;;16.44;100.00;97761.14;1752577;81;21311;-88
2022/08/18 04:58:50;;;;;;;29.25;26.07;;;;;;;16.54;100.00;97753.16;1752978;81;21018;-90
2022/08/18 05:01:17;;;;;;;27.87;23.30;;;;;;;16.63;100.00;97753.37;1746540;81;21010;-86
2022/08/18 05:03:43;;;;;;;27.70;24.92;;;;;;;16.70;100.00;97753.48;1740566;81;21026;-86
2022/08/18 05:06:09;;;;;;;25.23;22.55;;;;;;;16.69;100.00;97751.31;1748743;81;20958;-89
2022/08/18 05:08:35;;;;;;;25.25;22.77;;;;;;;16.75;100.00;97759.59;1725157;81;21155;-87
2022/08/18 05:11:01;;;;;;;25.05;22.55;;;;;;;16.78;100.00;97757.56;1743471;81;20999;-86
2022/08/18 05:13:27;;;;;;;30.43;25.05;;;;;;;16.82;100.00;97756.33;1758074;81;21034;-89
2022/08/18 05:15:56;;;;;;;28.75;23.62;;;;;;;16.87;100.00;97753.42;1741914;81;20898;-89
2022/08/18 05:18:23;;;;;;;;;;;;;;;17.01;100.00;97750.49;1757461;81;21009;-88
2022/08/18 05:20:51;;;;;;;25.02;21.70;;;;;;;17.11;100.00;97758.34;1685639;83;21125;-90
2022/08/18 05:23:19;;;;;;;27.47;22.97;;;;;;;17.18;100.00;97753.96;1705501;84;20991;-85
2022/08/18 05:25:45;;;;;;;29.55;24.40;;;;;;;17.28;100.00;97759.63;1731367;81;22393;-86
2022/08/18 05:28:12;;;;;;;25.05;21.40;;;;;;;17.43;100.00;97759.08;1744560;81;21036;-90
2022/08/18 05:30:39;;;;;;;24.63;22.22;;;;;;;17.58;100.00;97758.25;1761323;79;21013;-87
2022/08/18 05:33:09;;;;;;;31.35;27.00;;;;;;;17.70;100.00;97752.91;1765802;80;21014;-86
2022/08/18 05:35:44;;;;;;;25.80;23.25;;;;;;;17.78;100.00;97753.41;1757452;80;20986;-86
2022/08/18 05:38:48;;;;;;;26.12;23.32;;;;;;;17.88;100.00;97754.95;1746051;80;20979;-86
2022/08/18 05:41:22;;;;;;;23.10;20.15;;;;;;;17.98;100.00;97756.72;1741178;81;20979;-87
2022/08/18 05:43:48;;;;;;;33.20;26.10;;;;;;;18.08;100.00;97753.34;1737075;81;21005;-90
2022/08/18 05:46:15;;;;;;;28.92;23.73;;;;;;;18.17;100.00;97750.76;1746088;79;21068;-89
2022/08/18 05:48:41;;;;;;;23.77;21.23;;;;;;;18.27;100.00;97755.83;1755443;81;20967;-87
2022/08/18 05:51:19;;;;;;;22.37;20.08;;;;;;;18.42;100.00;97749.50;1730539;81;44078;-87
2022/08/18 05:56:47;;;;;;;22.10;19.87;;;;;;;18.71;100.00;97751.33;1738936;80;20988;-90
2022/08/18 05:59:25;;;;;;;26.50;20.40;;;;;;;18.85;100.00;97753.20;1715921;81;21069;-89
2022/08/18 06:02:06;;;;;;;22.13;19.57;;;;;;;18.99;100.00;97751.52;1742033;81;20967;-90
2022/08/18 06:04:46;;;;;;;25.50;21.52;;;;;;;19.18;100.00;97745.47;1746867;81;21005;-86
2022/08/18 06:07:16;;;;;;;23.45;20.97;;;;;;;19.33;100.00;97749.72;1765062;80;21014;-86
2022/08/18 06:09:48;;;;;;;25.55;21.17;;;;;;;19.52;100.00;97751.08;1757652;80;21006;-89
2022/08/18 06:12:32;;;;;;;22.25;19.85;;;;;;;19.70;100.00;97748.34;1765448;80;21291;-89
2022/08/18 06:15:20;;;;;;;25.82;20.60;;;;;;;19.80;100.00;97743.73;1756300;81;21009;-91
2022/08/18 06:18:15;;;;;;;23.55;20.10;;;;;;;19.97;100.00;97754.47;1735854;81;21026;-90
2022/08/18 06:21:13;;;;;;;25.68;23.07;;;;;;;20.16;100.00;97750.29;1754925;81;21038;-86
2022/08/18 06:24:04;;;;;;;26.33;21.87;;;;;;;20.34;100.00;97748.88;1740963;80;20995;-90
2022/08/18 06:26:47;;;;;;;24.72;22.17;;;;;;;20.58;100.00;97748.55;1759682;81;21450;-89
2022/08/18 06:29:31;;;;;;;26.10;21.75;;;;;;;20.79;100.00;97747.19;1743067;81;20978;-90
2022/08/18 06:32:09;;;;;;;25.30;22.67;;;;;;;21.04;100.00;97749.21;1753698;81;20974;-90
2022/08/18 06:34:43;;;;;;;29.87;24.32;;;;;;;21.28;100.00;97755.73;1748382;80;21057;-86
2022/08/18 06:38:37;;;;;;;22.70;20.30;;;;;;;21.48;100.00;97755.23;1747285;79;21123;-87
2022/08/18 06:40:08;;;;;;;30.10;22.93;;;;;;;21.70;100.00;97755.93;1760659;81;21307;-90
2022/08/18 06:42:33;;;;;;;24.18;21.57;;;;;;;21.99;100.00;97760.73;1760208;80;20841;-86
2022/08/18 06:45:11;;;;;;;29.63;23.52;;;;;;;22.27;99.27;97768.84;1745917;81;21567;-89
2022/08/18 06:47:52;;;;;;;25.43;22.75;;;;;;;22.72;100.00;97767.57;1751636;81;21065;-86
2022/08/18 06:50:41;;;;;;;23.20;20.77;;;;;;;23.20;99.12;97770.85;1750093;80;20962;-91
2022/08/18 06:53:07;;;;;;;25.25;21.05;;;;;;;23.63;96.24;97771.58;1749482;80;21547;-88
2022/08/18 06:55:38;;;;;;;26.82;20.62;;;;;;;23.51;95.34;97768.41;1750194;81;21071;-87
2022/08/18 06:58:18;;;;;;;22.10;19.70;;;;;;;23.62;93.88;97771.38;1713381;81;21001;-87
2022/08/18 07:00:53;;;;;;;23.20;18.87;;;;;;;23.76;93.85;97766.06;1753615;79;21457;-87
2022/08/18 07:03:22;;;;;;;20.97;18.75;;;;;;;24.03;91.23;97771.00;1747237;81;21134;-90
2022/08/18 07:06:09;;;;;;;25.27;20.08;;;;;;;23.98;89.98;97767.75;1747473;80;21171;-87
2022/08/18 07:08:39;;;;;;;23.83;19.35;;;;;;;24.12;91.13;97770.13;1723631;81;20985;-91
2022/08/18 07:11:31;;;;;;;25.23;18.82;;;;;;;24.62;88.21;97756.95;1751574;81;21084;-90
2022/08/18 07:14:14;;;;;;;20.65;18.50;;;;;;;25.21;87.81;97752.98;1753410;79;21036;-91
2022/08/18 07:16:40;;;;;;;26.05;17.95;;;;;;;25.79;85.62;97759.22;1761172;81;21006;-90
2022/08/18 07:19:10;;;;;;;20.20;16.93;;;;;;;26.25;85.26;97758.71;1749085;81;21327;-90
2022/08/18 07:21:39;;;;;;;22.05;17.30;;;;;;;26.83;84.54;97750.79;1749731;81;21021;-87
2022/08/18 07:24:24;;;;;;;18.35;16.37;;;;;;;27.20;77.33;97758.25;1753905;81;21153;-91
2022/08/18 07:27:04;;;;;;;21.97;19.67;;;;;;;27.57;77.33;97751.48;1735254;81;21308;-90
2022/08/18 07:29:34;;;;;;;20.68;15.15;;;;;;;28.13;77.96;97759.59;1744094;79;21084;-89
2022/08/18 07:32:09;;;;;;;18.42;16.23;;;;;;;28.21;66.85;97750.02;1718184;81;21288;-87
2022/08/18 07:34:42;;;;;;;15.18;13.68;;;;;;;28.76;72.52;97749.40;1758411;81;21036;-91
2022/08/18 07:37:50;;;;;;;19.00;13.13;;;;;;;28.70;67.01;97744.05;1757080;79;21653;-90
2022/08/18 07:40:33;;;;;;;15.32;13.03;;;;;;;29.18;69.71;97733.62;1749087;81;21093;-90
2022/08/18 07:43:04;;;;;;;17.05;13.72;;;;;;;29.66;69.63;97730.86;1748510;81;21028;-91
2022/08/18 07:45:43;;;;;;;14.63;13.13;;;;;;;30.08;69.12;97725.25;1727349;81;21836;-90
2022/08/18 07:48:31;;;;;;;14.50;13.08;;;;;;;30.41;67.97;97720.88;1747401;79;21009;-90
2022/08/18 07:51:08;;;;;;;15.38;13.70;;;;;;;30.71;66.45;97719.52;1746910;81;22058;-90
2022/08/18 07:54:09;;;;;;;14.63;13.22;;;;;;;31.21;64.47;97720.78;1747008;81;21039;-89
2022/08/18 07:56:46;;;;;;;16.77;11.85;;;;;;;31.43;63.73;97717.83;1763186;79;21032;-90
2022/08/18 07:59:20;;;;;;;14.38;12.40;;;;;;;31.97;60.70;97717.70;1740716;80;21105;-87
2022/08/18 08:02:08;;;;;;;16.70;12.58;;;;;;;31.74;60.63;97722.70;1757402;79;21510;-87
2022/08/18 08:05:04;;;;;;;15.98;12.15;;;;;;;32.17;59.45;97714.91;1749531;80;21105;-89
2022/08/18 08:07:47;;;;;;;12.85;11.65;;;;;;;32.06;59.56;97713.73;1747763;80;21072;-90
2022/08/18 08:10:42;;;;;;;52.78;48.58;;;;;;;32.62;59.19;97706.77;1752484;81;21085;-89
2022/08/18 08:13:41;;;;;;;14.63;13.10;;;;;;;32.87;57.09;97709.66;1735861;80;21834;-87
2022/08/18 08:16:44;;;;;;;17.48;12.68;;;;;;;33.31;53.93;97698.38;1736746;81;21120;-88
2022/08/18 08:19:37;;;;;;;14.73;12.05;;;;;;;33.32;54.69;97701.36;1745663;81;21174;-87
2022/08/18 08:22:39;;;;;;;14.95;12.55;;;;;;;34.11;54.62;97700.16;1736342;81;22077;-87
2022/08/18 08:25:32;;;;;;;12.68;11.38;;;;;;;34.47;53.46;97695.72;1766211;79;21014;-89
2022/08/18 08:28:09;;;;;;;20.17;12.05;;;;;;;35.13;52.80;97697.53;1753596;79;21104;-88
2022/08/18 08:30:44;;;;;;;13.08;11.45;;;;;;;35.39;51.41;97699.70;1759409;79;21002;-90
2022/08/18 08:33:31;;;;;;;12.43;10.90;;;;;;;35.65;50.00;97698.42;1701753;82;20983;-88
2022/08/18 08:36:10;;;;;;;13.10;11.00;;;;;;;35.58;48.07;97703.67;1762206;79;21379;-90
2022/08/18 08:38:49;;;;;;;13.00;11.65;;;;;;;35.90;47.62;97715.11;1747817;79;21056;-88
2022/08/18 08:41:24;;;;;;;12.88;10.32;;;;;;;36.13;45.91;97714.03;1754478;81;21088;-88
2022/08/18 08:44:07;;;;;;;14.65;10.70;;;;;;;36.37;45.55;97720.03;1752417;81;21116;-89
2022/08/18 08:46:54;;;;;;;11.25;10.15;;;;;;;36.65;44.04;97725.21;1738853;81;21536;-88
2022/08/18 08:49:41;;;;;;;18.98;10.95;;;;;;;36.64;41.82;97728.50;1754556;79;21028;-89
2022/08/18 08:52:24;;;;;;;14.15;10.18;;;;;;;36.75;42.11;97726.67;1762009;80;21090;-87
2022/08/18 08:55:01;;;;;;;10.78;9.68;;;;;;;37.54;43.11;97738.66;1754614;81;21145;-88
2022/08/18 08:57:32;;;;;;;10.90;9.83;;;;;;;37.64;41.15;97736.64;1748505;80;21114;-88
2022/08/18 09:00:01;;;;;;;12.18;9.48;;;;;;;37.81;40.14;97737.95;1748228;81;21061;-88
2022/08/18 09:02:45;;;;;;;10.58;9.68;;;;;;;37.12;38.29;97742.58;1746671;80;21091;-87
2022/08/18 09:05:27;;;;;;;10.72;9.63;;;;;;;37.66;40.13;97743.23;1743650;81;21068;-90
2022/08/18 09:08:22;;;;;;;11.18;10.08;;;;;;;36.93;38.75;97738.89;1746613;81;21133;-88
2022/08/18 09:11:20;;;;;;;10.70;9.20;;;;;;;37.17;37.77;97739.13;1718686;82;21091;-87
2022/08/18 09:14:26;;;;;;;12.78;9.10;;;;;;;37.27;38.13;97742.80;1718127;82;21086;-90
2022/08/18 09:17:25;;;;;;;;;;;;;;;37.90;38.69;97739.22;1715640;81;21082;-88
2022/08/18 09:20:22;;;;;;;8.98;8.18;;;;;;;38.61;38.65;97730.37;1705033;83;20262;-90
2022/08/18 09:22:55;;;;;;;11.43;9.40;;;;;;;38.97;36.68;97723.88;1712328;82;21654;-88
2022/08/18 09:25:42;;;;;;;11.57;8.08;;;;;;;39.05;36.30;97726.48;1758240;79;21043;-89
2022/08/18 09:28:30;;;;;;;8.80;7.90;;;;;;;39.69;35.97;97725.42;1718141;82;21044;-88
2022/08/18 09:31:04;;;;;;;9.50;7.78;;;;;;;40.31;35.02;97732.50;1666861;84;21116;-89
2022/08/18 09:33:45;;;;;;;10.40;8.13;;;;;;;39.92;33.88;97723.22;1680869;83;20981;-87
2022/08/18 09:36:19;;;;;;;13.88;8.85;;;;;;;38.98;33.24;97726.85;1688618;84;21825;-88
2022/08/18 09:41:57;;;;;;;8.85;8.05;;;;;;;38.22;34.59;97720.84;1690960;84;21710;-90
2022/08/18 09:44:49;;;;;;;9.50;8.50;;;;;;;38.36;35.89;97715.95;1690919;84;21395;-89
2022/08/18 09:47:30;;;;;;;12.28;8.58;;;;;;;38.06;35.75;97720.53;1659242;84;21071;-88
2022/08/18 09:49:59;;;;;;;9.08;8.18;;;;;;;38.12;36.02;97717.23;1742633;80;21742;-90
2022/08/18 09:52:38;;;;;;;9.63;7.60;;;;;;;38.64;35.14;97716.71;1748407;81;21026;-86
2022/08/18 09:55:08;;;;;;;8.55;7.75;;;;;;;39.49;33.78;97720.34;1735640;81;21113;-89
2022/08/18 09:57:36;;;;;;;12.43;7.95;;;;;;;39.97;33.99;97725.36;1747027;81;21041;-87
2022/08/18 10:00:10;;;;;;;;;;;;;;;39.86;32.17;97727.98;1752197;81;21073;-88
2022/08/18 10:02:40;;;;;;;11.93;7.17;;;;;;;40.19;32.26;97722.23;1751869;79;21949;-87
2022/08/18 10:05:20;;;;;;;10.82;7.78;;;;;;;41.02;31.21;97723.62;1747709;81;21100;-89
2022/08/18 10:08:10;;;;;;;10.38;8.08;;;;;;;40.51;30.63;97721.17;1732765;81;21029;-88
2022/08/18 10:10:50;;;;;;;10.82;7.67;;;;;;;40.20;31.32;97717.33;1756055;80;21446;-88
2022/08/18 10:13:39;;;;;;;8.40;7.47;;;;;;;40.04;31.13;97711.48;1753174;80;21054;-88
2022/08/18 10:16:29;;;;;;;9.33;7.53;;;;;;;41.06;29.53;97716.30;1750685;81;21092;-88
2022/08/18 10:19:22;;;;;;;11.85;7.12;;;;;;;40.93;28.82;97708.72;1667701;84;21036;-88
2022/08/18 10:22:00;;;;;;;8.83;7.65;;;;;;;38.99;30.71;97712.06;1748305;81;21020;-89
2022/08/18 10:24:55;;;;;;;9.58;7.90;;;;;;;36.51;34.82;97713.08;1736355;81;21071;-88
2022/08/18 10:27:45;;;;;;;10.08;8.00;;;;;;;35.07;36.54;97712.00;1758477;79;21096;-89
2022/08/18 10:30:36;;;;;;;13.50;8.08;;;;;;;34.58;37.96;97709.45;1745442;80;21105;-89
2022/08/18 10:33:06;;;;;;;9.63;8.08;;;;;;;34.21;38.95;97707.48;1708517;83;21103;-89
2022/08/18 10:35:40;;;;;;;9.58;8.45;;;;;;;33.65;39.04;97704.34;1669891;82;21154;-89
2022/08/18 10:38:24;;;;;;;16.57;9.40;;;;;;;33.25;39.98;97697.34;1675848;82;21630;-87
2022/08/18 10:41:04;;;;;;;12.37;8.90;;;;;;;32.93;40.60;97702.32;1751390;81;21092;-87
2022/08/18 10:43:45;;;;;;;12.45;8.55;;;;;;;32.49;41.44;97695.45;1736328;81;21129;-87
2022/08/18 10:46:17;;;;;;;15.48;10.00;;;;;;;32.25;41.66;97691.13;1756263;80;21076;-89
2022/08/18 10:48:43;;;;;;;13.90;8.53;;;;;;;31.70;43.52;97683.56;1728132;80;21528;-89
2022/08/18 10:51:20;;;;;;;14.60;9.30;;;;;;;31.42;46.06;97684.05;1758709;79;21477;-89
2022/08/18 10:54:20;;;;;;;13.50;8.83;;;;;;;31.27;46.05;97674.31;1761847;81;21025;-89
2022/08/18 10:56:49;;;;;;;10.88;9.45;;;;;;;31.12;47.61;97675.16;1763520;81;21159;-87
2022/08/18 10:59:26;;;;;;;14.20;9.40;;;;;;;30.82;48.72;97668.41;1753846;80;20993;-89
2022/08/18 11:02:19;;;;;;;10.98;9.30;;;;;;;30.82;48.72;97668.41;1751886;79;21037;-90
2022/08/18 11:04:47;;;;;;;10.75;9.65;;;;;;;30.74;49.69;97666.93;1711979;82;21027;-89
2022/08/18 11:07:18;;;;;;;15.23;9.73;;;;;;;30.45;48.64;97672.72;1672220;84;20952;-86
2022/08/18 11:09:48;;;;;;;14.10;9.68;;;;;;;30.35;49.51;97667.47;1678724;84;22044;-87
2022/08/18 11:12:14;;;;;;;22.07;10.58;;;;;;;30.30;50.41;97668.71;1687584;84;21390;-90
2022/08/18 11:15:10;;;;;;;10.05;8.43;;;;;;;30.34;49.81;97661.70;1693299;82;21601;-88
2022/08/18 11:17:53;;;;;;;13.62;9.63;;;;;;;30.36;50.17;97663.45;1697265;82;21023;-89
2022/08/18 11:20:20;;;;;;;10.90;9.55;;;;;;;30.21;51.53;97662.84;1698018;83;21513;-87
2022/08/18 11:22:53;;;;;;;13.03;9.60;;;;;;;30.22;51.29;97652.46;1715763;83;21127;-89
2022/08/18 11:25:29;;;;;;;13.48;9.45;;;;;;;30.19;53.37;97649.12;1716666;83;21052;-89
2022/08/18 11:27:55;;;;;;;12.73;9.60;;;;;;;30.26;52.13;97654.62;1690175;82;21040;-89
2022/08/18 11:30:24;;;;;;;13.83;9.28;;;;;;;30.12;51.70;97643.61;1686871;82;20909;-89
2022/08/18 11:32:50;;;;;;;12.37;9.13;;;;;;;30.10;51.63;97644.04;1681112;84;21074;-89
2022/08/18 11:35:20;;;;;;;13.80;8.55;;;;;;;30.01;53.10;97643.73;1693100;84;21267;-89
2022/08/18 11:37:56;;;;;;;15.88;9.25;;;;;;;30.10;52.41;97646.83;1687160;82;21163;-89
2022/08/18 11:40:37;;;;;;;12.63;9.98;;;;;;;30.20;51.97;97638.13;1684547;84;21071;-87
2022/08/18 11:43:13;;;;;;;14.68;9.95;;;;;;;30.19;52.18;97644.92;1672607;84;21505;-86
2022/08/18 11:45:51;;;;;;;17.55;9.55;;;;;;;30.25;52.15;97635.67;1682145;84;21065;-85
2022/08/18 11:48:23;;;;;;;10.80;9.50;;;;;;;30.27;50.59;97636.03;1680003;83;22421;-86
2022/08/18 11:51:00;;;;;;;12.45;8.70;;;;;;;30.36;51.29;97628.53;1690559;82;21075;-86
2022/08/18 11:53:43;;;;;;;10.10;8.40;;;;;;;30.47;50.39;97621.38;1692417;84;21501;-86
2022/08/18 11:56:31;;;;;;;15.40;9.85;;;;;;;30.48;49.40;97615.97;1678300;84;21344;-87
2022/08/18 11:58:59;;;;;;;;;;;;;;;30.42;50.05;97615.64;1671434;84;21094;-86
2022/08/18 12:01:48;;;;;;;12.30;8.75;;;;;;;30.33;49.91;97611.98;1680786;83;21167;-85
2022/08/18 12:04:36;;;;;;;15.50;9.18;;;;;;;30.36;49.61;97604.77;1675618;84;21103;-87